sensor_id;sensor_type;location;lat;lon;timestamp;temperature;humidity
25688;DHT22;17407;51.120;3.702;2023-08-01T00:00:25;17.30;99.90
25688;DHT22;17407;51.120;3.702;2023-08-01T00:02:50;17.30;99.90
25688;DHT22;17407;51.120;3.702;2023-08-01T00:05:16;17.30;99.90
25688;DHT22;17407;51.120;3.702;2023-08-01T00:07:41;17.20;99.90
25688;DHT22;17407;51.120;3.702;2023-08-01T00:10:08;17.30;99.90
25688;DHT22;17407;51.120;3.702;2023-08-01T00:12:34;17.30;99.90
25688;DHT22;17407;51.120;3.702;2023-08-01T00:15:00;17.10;99.90
25688;DHT22;17407;51.120;3.702;2023-08-01T00:17:26;17.00;99.90
25688;DHT22;17407;51.120;3.702;2023-08-01T00:19:51;17.00;99.90
25688;DHT22;17407;51.120;3.702;2023-08-01T00:22:17;16.90;99.90
25688;DHT22;17407;51.120;3.702;2023-08-01T00:24:43;17.00;99.90
25688;DHT22;17407;51.120;3.702;2023-08-01T00:27:08;17.10;99.90
25688;DHT22;17407;51.120;3.702;2023-08-01T00:29:36;17.10;99.90
25688;DHT22;17407;51.120;3.702;2023-08-01T00:32:01;17.10;99.90
25688;DHT22;17407;51.120;3.702;2023-08-01T00:34:27;17.00;99.90
25688;DHT22;17407;51.120;3.702;2023-08-01T00:36:53;17.10;99.90
25688;DHT22;17407;51.120;3.702;2023-08-01T00:39:18;17.10;99.90
25688;DHT22;17407;51.120;3.702;2023-08-01T00:41:44;17.10;99.90
25688;DHT22;17407;51.120;3.702;2023-08-01T00:44:09;17.00;99.90
25688;DHT22;17407;51.120;3.702;2023-08-01T00:46:35;17.10;99.90
25688;DHT22;17407;51.120;3.702;2023-08-01T00:49:02;17.00;99.90
25688;DHT22;17407;51.120;3.702;2023-08-01T00:51:29;16.90;99.90
25688;DHT22;17407;51.120;3.702;2023-08-01T00:53:56;17.10;99.90
25688;DHT22;17407;51.120;3.702;2023-08-01T00:56:22;17.10;99.90
25688;DHT22;17407;51.120;3.702;2023-08-01T00:58:47;17.10;99.90
25688;DHT22;17407;51.120;3.702;2023-08-01T01:01:13;17.10;99.90
25688;DHT22;17407;51.120;3.702;2023-08-01T01:03:39;17.10;99.90
25688;DHT22;17407;51.120;3.702;2023-08-01T01:06:37;17.00;99.90
25688;DHT22;17407;51.120;3.702;2023-08-01T01:09:19;17.10;99.90
25688;DHT22;17407;51.120;3.702;2023-08-01T01:11:45;17.20;99.90
25688;DHT22;17407;51.120;3.702;2023-08-01T01:14:11;17.20;99.90
25688;DHT22;17407;51.120;3.702;2023-08-01T01:16:37;17.20;99.90
25688;DHT22;17407;51.120;3.702;2023-08-01T01:19:07;17.00;99.90
25688;DHT22;17407;51.120;3.702;2023-08-01T01:21:39;17.00;99.90
25688;DHT22;17407;51.120;3.702;2023-08-01T01:24:07;17.00;99.90
25688;DHT22;17407;51.120;3.702;2023-08-01T01:26:34;17.00;99.90
25688;DHT22;17407;51.120;3.702;2023-08-01T01:29:01;17.10;99.90
25688;DHT22;17407;51.120;3.702;2023-08-01T01:31:28;17.00;99.90
25688;DHT22;17407;51.120;3.702;2023-08-01T01:33:55;17.10;99.90
25688;DHT22;17407;51.120;3.702;2023-08-01T01:36:21;17.20;99.90
25688;DHT22;17407;51.120;3.702;2023-08-01T01:38:46;17.10;99.90
25688;DHT22;17407;51.120;3.702;2023-08-01T01:41:12;17.00;99.90
25688;DHT22;17407;51.120;3.702;2023-08-01T01:43:38;16.90;99.90
25688;DHT22;17407;51.120;3.702;2023-08-01T01:46:04;16.80;99.90
25688;DHT22;17407;51.120;3.702;2023-08-01T01:48:29;16.90;99.90
25688;DHT22;17407;51.120;3.702;2023-08-01T01:50:55;16.80;99.90
25688;DHT22;17407;51.120;3.702;2023-08-01T01:53:21;16.90;99.90
25688;DHT22;17407;51.120;3.702;2023-08-01T01:55:46;16.90;99.90
25688;DHT22;17407;51.120;3.702;2023-08-01T01:58:12;16.90;99.90
25688;DHT22;17407;51.120;3.702;2023-08-01T02:00:37;17.00;99.90
25688;DHT22;17407;51.120;3.702;2023-08-01T02:03:03;16.90;99.90
25688;DHT22;17407;51.120;3.702;2023-08-01T02:05:29;16.80;99.90
25688;DHT22;17407;51.120;3.702;2023-08-01T02:07:55;16.70;99.90
25688;DHT22;17407;51.120;3.702;2023-08-01T02:10:21;16.70;99.90
25688;DHT22;17407;51.120;3.702;2023-08-01T02:12:46;16.70;99.90
25688;DHT22;17407;51.120;3.702;2023-08-01T02:15:12;16.80;99.90
25688;DHT22;17407;51.120;3.702;2023-08-01T02:17:37;16.80;99.90
25688;DHT22;17407;51.120;3.702;2023-08-01T02:20:03;16.70;99.90
25688;DHT22;17407;51.120;3.702;2023-08-01T02:22:30;16.70;99.90
25688;DHT22;17407;51.120;3.702;2023-08-01T02:24:56;16.80;99.90
25688;DHT22;17407;51.120;3.702;2023-08-01T02:27:21;16.90;99.90
25688;DHT22;17407;51.120;3.702;2023-08-01T02:29:47;16.90;99.90
25688;DHT22;17407;51.120;3.702;2023-08-01T02:32:15;16.90;99.90
25688;DHT22;17407;51.120;3.702;2023-08-01T02:34:40;17.00;99.90
25688;DHT22;17407;51.120;3.702;2023-08-01T02:37:06;17.10;99.90
25688;DHT22;17407;51.120;3.702;2023-08-01T02:39:32;17.10;99.90
25688;DHT22;17407;51.120;3.702;2023-08-01T02:41:57;17.10;99.90
25688;DHT22;17407;51.120;3.702;2023-08-01T02:44:23;17.10;99.90
25688;DHT22;17407;51.120;3.702;2023-08-01T02:46:48;17.10;99.90
25688;DHT22;17407;51.120;3.702;2023-08-01T02:49:14;17.10;99.90
25688;DHT22;17407;51.120;3.702;2023-08-01T02:51:40;17.00;99.90
25688;DHT22;17407;51.120;3.702;2023-08-01T02:54:05;17.00;99.90
25688;DHT22;17407;51.120;3.702;2023-08-01T02:56:31;16.90;99.90
25688;DHT22;17407;51.120;3.702;2023-08-01T02:58:56;17.00;99.90
25688;DHT22;17407;51.120;3.702;2023-08-01T03:01:22;17.10;99.90
25688;DHT22;17407;51.120;3.702;2023-08-01T03:03:48;17.10;99.90
25688;DHT22;17407;51.120;3.702;2023-08-01T03:06:14;17.00;99.90
25688;DHT22;17407;51.120;3.702;2023-08-01T03:08:40;17.00;99.90
25688;DHT22;17407;51.120;3.702;2023-08-01T03:11:06;17.10;99.90
25688;DHT22;17407;51.120;3.702;2023-08-01T03:13:31;17.10;99.90
25688;DHT22;17407;51.120;3.702;2023-08-01T03:15:57;17.10;99.90
25688;DHT22;17407;51.120;3.702;2023-08-01T03:18:23;17.00;99.90
25688;DHT22;17407;51.120;3.702;2023-08-01T03:20:48;16.90;99.90
25688;DHT22;17407;51.120;3.702;2023-08-01T03:23:14;16.90;99.90
25688;DHT22;17407;51.120;3.702;2023-08-01T03:25:40;16.90;99.90
25688;DHT22;17407;51.120;3.702;2023-08-01T03:28:06;17.00;99.90
25688;DHT22;17407;51.120;3.702;2023-08-01T03:30:32;16.90;99.90
25688;DHT22;17407;51.120;3.702;2023-08-01T03:32:58;17.10;99.90
25688;DHT22;17407;51.120;3.702;2023-08-01T03:35:23;17.10;99.90
25688;DHT22;17407;51.120;3.702;2023-08-01T03:37:49;17.00;99.90
25688;DHT22;17407;51.120;3.702;2023-08-01T03:40:15;17.00;99.90
25688;DHT22;17407;51.120;3.702;2023-08-01T03:42:40;17.10;99.90
25688;DHT22;17407;51.120;3.702;2023-08-01T03:45:07;17.10;99.90
25688;DHT22;17407;51.120;3.702;2023-08-01T03:47:33;16.90;99.90
25688;DHT22;17407;51.120;3.702;2023-08-01T03:49:58;16.80;99.90
25688;DHT22;17407;51.120;3.702;2023-08-01T03:52:24;16.80;99.90
25688;DHT22;17407;51.120;3.702;2023-08-01T03:54:55;16.90;99.90
25688;DHT22;17407;51.120;3.702;2023-08-01T03:57:21;16.70;99.90
25688;DHT22;17407;51.120;3.702;2023-08-01T03:59:47;16.60;99.90
25688;DHT22;17407;51.120;3.702;2023-08-01T04:02:12;16.70;99.90
25688;DHT22;17407;51.120;3.702;2023-08-01T04:04:38;16.70;99.90
25688;DHT22;17407;51.120;3.702;2023-08-01T04:07:04;16.80;99.90
25688;DHT22;17407;51.120;3.702;2023-08-01T04:09:30;16.90;99.90
25688;DHT22;17407;51.120;3.702;2023-08-01T04:11:55;16.80;99.90
25688;DHT22;17407;51.120;3.702;2023-08-01T04:14:21;16.90;99.90
25688;DHT22;17407;51.120;3.702;2023-08-01T04:16:47;16.90;99.90
25688;DHT22;17407;51.120;3.702;2023-08-01T04:19:12;16.80;99.90
25688;DHT22;17407;51.120;3.702;2023-08-01T04:21:38;16.90;99.90
25688;DHT22;17407;51.120;3.702;2023-08-01T04:24:04;16.80;99.90
25688;DHT22;17407;51.120;3.702;2023-08-01T04:26:30;16.90;99.90
25688;DHT22;17407;51.120;3.702;2023-08-01T04:28:55;17.00;99.90
25688;DHT22;17407;51.120;3.702;2023-08-01T04:31:21;17.00;99.90
25688;DHT22;17407;51.120;3.702;2023-08-01T04:33:46;17.00;99.90
25688;DHT22;17407;51.120;3.702;2023-08-01T04:36:12;17.00;99.90
25688;DHT22;17407;51.120;3.702;2023-08-01T04:38:38;17.20;99.90
25688;DHT22;17407;51.120;3.702;2023-08-01T04:41:03;17.10;99.90
25688;DHT22;17407;51.120;3.702;2023-08-01T04:43:29;17.00;99.90
25688;DHT22;17407;51.120;3.702;2023-08-01T04:45:54;16.90;99.90
25688;DHT22;17407;51.120;3.702;2023-08-01T04:48:20;17.00;99.90
25688;DHT22;17407;51.120;3.702;2023-08-01T04:50:46;16.90;99.90
25688;DHT22;17407;51.120;3.702;2023-08-01T04:53:12;16.90;99.90
25688;DHT22;17407;51.120;3.702;2023-08-01T04:55:37;16.90;99.90
25688;DHT22;17407;51.120;3.702;2023-08-01T04:58:03;16.90;99.90
25688;DHT22;17407;51.120;3.702;2023-08-01T05:00:29;16.90;99.90
25688;DHT22;17407;51.120;3.702;2023-08-01T05:02:54;17.00;99.90
25688;DHT22;17407;51.120;3.702;2023-08-01T05:05:20;17.10;99.90
25688;DHT22;17407;51.120;3.702;2023-08-01T05:07:46;17.10;99.90
25688;DHT22;17407;51.120;3.702;2023-08-01T05:10:11;17.20;99.90
25688;DHT22;17407;51.120;3.702;2023-08-01T05:12:37;17.20;99.90
25688;DHT22;17407;51.120;3.702;2023-08-01T05:15:02;17.20;99.90
25688;DHT22;17407;51.120;3.702;2023-08-01T05:17:29;17.10;99.90
25688;DHT22;17407;51.120;3.702;2023-08-01T05:19:54;17.10;99.90
25688;DHT22;17407;51.120;3.702;2023-08-01T05:22:20;17.10;99.90
25688;DHT22;17407;51.120;3.702;2023-08-01T05:24:46;17.10;99.90
25688;DHT22;17407;51.120;3.702;2023-08-01T05:27:12;17.00;99.90
25688;DHT22;17407;51.120;3.702;2023-08-01T05:29:37;17.00;99.90
25688;DHT22;17407;51.120;3.702;2023-08-01T05:32:03;17.10;99.90
25688;DHT22;17407;51.120;3.702;2023-08-01T05:34:29;17.20;99.90
25688;DHT22;17407;51.120;3.702;2023-08-01T05:36:54;17.10;99.90
25688;DHT22;17407;51.120;3.702;2023-08-01T05:39:20;17.20;99.90
25688;DHT22;17407;51.120;3.702;2023-08-01T05:41:46;17.20;99.90
25688;DHT22;17407;51.120;3.702;2023-08-01T05:44:12;17.30;99.90
25688;DHT22;17407;51.120;3.702;2023-08-01T05:46:37;17.30;99.90
25688;DHT22;17407;51.120;3.702;2023-08-01T05:49:03;17.40;99.90
25688;DHT22;17407;51.120;3.702;2023-08-01T05:51:28;17.40;99.90
25688;DHT22;17407;51.120;3.702;2023-08-01T05:53:54;17.50;99.90
25688;DHT22;17407;51.120;3.702;2023-08-01T05:56:20;17.50;99.90
25688;DHT22;17407;51.120;3.702;2023-08-01T05:58:45;17.50;99.90
25688;DHT22;17407;51.120;3.702;2023-08-01T06:01:11;17.50;99.90
25688;DHT22;17407;51.120;3.702;2023-08-01T06:03:37;17.50;99.90
25688;DHT22;17407;51.120;3.702;2023-08-01T06:06:03;17.40;99.90
25688;DHT22;17407;51.120;3.702;2023-08-01T06:08:29;17.50;99.90
25688;DHT22;17407;51.120;3.702;2023-08-01T06:10:55;17.50;99.90
25688;DHT22;17407;51.120;3.702;2023-08-01T06:13:21;17.50;99.90
25688;DHT22;17407;51.120;3.702;2023-08-01T06:15:46;17.60;99.90
25688;DHT22;17407;51.120;3.702;2023-08-01T06:18:12;17.60;99.90
25688;DHT22;17407;51.120;3.702;2023-08-01T06:20:38;17.60;99.90
25688;DHT22;17407;51.120;3.702;2023-08-01T06:23:04;17.60;99.90
25688;DHT22;17407;51.120;3.702;2023-08-01T06:25:30;17.60;99.90
25688;DHT22;17407;51.120;3.702;2023-08-01T06:27:56;17.80;99.90
25688;DHT22;17407;51.120;3.702;2023-08-01T06:30:22;17.80;99.90
25688;DHT22;17407;51.120;3.702;2023-08-01T06:32:47;17.90;99.90
25688;DHT22;17407;51.120;3.702;2023-08-01T06:35:13;17.90;99.90
25688;DHT22;17407;51.120;3.702;2023-08-01T06:37:38;17.90;99.90
25688;DHT22;17407;51.120;3.702;2023-08-01T06:40:05;18.10;99.90
25688;DHT22;17407;51.120;3.702;2023-08-01T06:42:31;18.10;99.90
25688;DHT22;17407;51.120;3.702;2023-08-01T06:44:56;18.20;99.90
25688;DHT22;17407;51.120;3.702;2023-08-01T06:47:22;18.20;99.90
25688;DHT22;17407;51.120;3.702;2023-08-01T06:49:47;18.20;99.90
25688;DHT22;17407;51.120;3.702;2023-08-01T06:52:13;18.30;99.90
25688;DHT22;17407;51.120;3.702;2023-08-01T06:54:39;18.30;99.90
25688;DHT22;17407;51.120;3.702;2023-08-01T06:57:06;18.40;99.90
25688;DHT22;17407;51.120;3.702;2023-08-01T06:59:32;18.60;99.90
25688;DHT22;17407;51.120;3.702;2023-08-01T07:01:57;18.70;99.90
25688;DHT22;17407;51.120;3.702;2023-08-01T07:04:23;18.80;99.90
25688;DHT22;17407;51.120;3.702;2023-08-01T07:06:49;18.70;99.90
25688;DHT22;17407;51.120;3.702;2023-08-01T07:09:15;18.70;99.90
25688;DHT22;17407;51.120;3.702;2023-08-01T07:11:40;18.70;99.90
25688;DHT22;17407;51.120;3.702;2023-08-01T07:14:06;18.80;99.90
25688;DHT22;17407;51.120;3.702;2023-08-01T07:16:32;18.80;99.90
25688;DHT22;17407;51.120;3.702;2023-08-01T07:19:00;18.80;99.90
25688;DHT22;17407;51.120;3.702;2023-08-01T07:21:26;18.90;99.90
25688;DHT22;17407;51.120;3.702;2023-08-01T07:23:51;19.00;99.90
25688;DHT22;17407;51.120;3.702;2023-08-01T07:26:17;19.00;99.90
25688;DHT22;17407;51.120;3.702;2023-08-01T07:28:43;19.00;99.90
25688;DHT22;17407;51.120;3.702;2023-08-01T07:31:08;19.10;99.90
25688;DHT22;17407;51.120;3.702;2023-08-01T07:33:34;19.20;99.90
25688;DHT22;17407;51.120;3.702;2023-08-01T07:36:01;19.10;99.90
25688;DHT22;17407;51.120;3.702;2023-08-01T07:38:26;19.20;99.90
25688;DHT22;17407;51.120;3.702;2023-08-01T07:40:53;19.40;99.90
25688;DHT22;17407;51.120;3.702;2023-08-01T07:43:19;19.30;99.90
25688;DHT22;17407;51.120;3.702;2023-08-01T07:45:45;19.30;99.90
25688;DHT22;17407;51.120;3.702;2023-08-01T07:48:11;19.20;99.90
25688;DHT22;17407;51.120;3.702;2023-08-01T07:50:37;19.20;99.90
25688;DHT22;17407;51.120;3.702;2023-08-01T07:53:02;19.40;99.90
25688;DHT22;17407;51.120;3.702;2023-08-01T07:55:28;19.60;99.90
25688;DHT22;17407;51.120;3.702;2023-08-01T07:57:54;19.60;99.90
25688;DHT22;17407;51.120;3.702;2023-08-01T08:00:19;19.60;99.90
25688;DHT22;17407;51.120;3.702;2023-08-01T08:02:45;19.50;99.90
25688;DHT22;17407;51.120;3.702;2023-08-01T08:05:12;19.50;99.90
25688;DHT22;17407;51.120;3.702;2023-08-01T08:07:38;19.60;99.90
25688;DHT22;17407;51.120;3.702;2023-08-01T08:10:04;19.80;99.90
25688;DHT22;17407;51.120;3.702;2023-08-01T08:12:31;19.80;99.90
25688;DHT22;17407;51.120;3.702;2023-08-01T08:14:56;19.80;99.90
25688;DHT22;17407;51.120;3.702;2023-08-01T08:17:22;19.80;99.90
25688;DHT22;17407;51.120;3.702;2023-08-01T08:19:48;19.70;99.90
25688;DHT22;17407;51.120;3.702;2023-08-01T08:22:13;19.80;99.90
25688;DHT22;17407;51.120;3.702;2023-08-01T08:24:39;19.90;99.90
25688;DHT22;17407;51.120;3.702;2023-08-01T08:27:05;20.10;99.90
25688;DHT22;17407;51.120;3.702;2023-08-01T08:29:32;20.40;99.90
25688;DHT22;17407;51.120;3.702;2023-08-01T08:31:58;20.50;99.90
25688;DHT22;17407;51.120;3.702;2023-08-01T08:34:23;20.70;99.90
25688;DHT22;17407;51.120;3.702;2023-08-01T08:36:49;21.00;99.90
25688;DHT22;17407;51.120;3.702;2023-08-01T08:39:18;21.00;99.90
25688;DHT22;17407;51.120;3.702;2023-08-01T08:41:49;21.00;99.90
25688;DHT22;17407;51.120;3.702;2023-08-01T08:44:16;20.60;99.90
25688;DHT22;17407;51.120;3.702;2023-08-01T08:46:44;20.30;99.90
25688;DHT22;17407;51.120;3.702;2023-08-01T08:49:10;20.40;99.90
25688;DHT22;17407;51.120;3.702;2023-08-01T08:51:37;20.70;99.90
25688;DHT22;17407;51.120;3.702;2023-08-01T08:54:07;21.00;99.90
25688;DHT22;17407;51.120;3.702;2023-08-01T08:56:34;21.30;99.90
25688;DHT22;17407;51.120;3.702;2023-08-01T08:59:00;21.40;99.90
25688;DHT22;17407;51.120;3.702;2023-08-01T09:01:27;21.40;99.90
25688;DHT22;17407;51.120;3.702;2023-08-01T09:03:52;21.20;99.90
25688;DHT22;17407;51.120;3.702;2023-08-01T09:06:23;21.00;99.90
25688;DHT22;17407;51.120;3.702;2023-08-01T09:09:03;20.80;99.90
25688;DHT22;17407;51.120;3.702;2023-08-01T09:11:42;20.60;99.90
25688;DHT22;17407;51.120;3.702;2023-08-01T09:14:09;20.50;99.90
25688;DHT22;17407;51.120;3.702;2023-08-01T09:16:35;20.40;99.90
25688;DHT22;17407;51.120;3.702;2023-08-01T09:19:01;20.60;99.90
25688;DHT22;17407;51.120;3.702;2023-08-01T09:21:31;20.90;99.90
25688;DHT22;17407;51.120;3.702;2023-08-01T09:24:11;21.40;99.90
25688;DHT22;17407;51.120;3.702;2023-08-01T09:26:37;21.90;99.90
25688;DHT22;17407;51.120;3.702;2023-08-01T09:29:03;22.30;99.90
25688;DHT22;17407;51.120;3.702;2023-08-01T09:31:33;22.30;99.90
25688;DHT22;17407;51.120;3.702;2023-08-01T09:34:01;22.40;99.90
25688;DHT22;17407;51.120;3.702;2023-08-01T09:36:27;22.60;99.90
25688;DHT22;17407;51.120;3.702;2023-08-01T09:39:01;22.60;99.90
25688;DHT22;17407;51.120;3.702;2023-08-01T09:41:27;22.90;99.90
25688;DHT22;17407;51.120;3.702;2023-08-01T09:43:53;22.80;99.90
25688;DHT22;17407;51.120;3.702;2023-08-01T09:46:19;22.70;99.90
25688;DHT22;17407;51.120;3.702;2023-08-01T09:48:44;22.50;99.90
25688;DHT22;17407;51.120;3.702;2023-08-01T09:51:12;22.40;99.90
25688;DHT22;17407;51.120;3.702;2023-08-01T09:53:50;22.40;99.90
25688;DHT22;17407;51.120;3.702;2023-08-01T09:56:25;22.40;99.90
25688;DHT22;17407;51.120;3.702;2023-08-01T09:58:54;22.40;99.90
25688;DHT22;17407;51.120;3.702;2023-08-01T10:01:22;22.60;99.90
25688;DHT22;17407;51.120;3.702;2023-08-01T10:03:50;22.90;99.90
25688;DHT22;17407;51.120;3.702;2023-08-01T10:06:23;23.20;99.90
25688;DHT22;17407;51.120;3.702;2023-08-01T10:08:51;23.20;99.90
25688;DHT22;17407;51.120;3.702;2023-08-01T10:11:18;23.10;99.90
25688;DHT22;17407;51.120;3.702;2023-08-01T10:13:45;23.00;99.90
25688;DHT22;17407;51.120;3.702;2023-08-01T10:16:11;23.00;99.90
25688;DHT22;17407;51.120;3.702;2023-08-01T10:18:38;23.00;99.90
25688;DHT22;17407;51.120;3.702;2023-08-01T10:21:08;22.70;99.90
25688;DHT22;17407;51.120;3.702;2023-08-01T10:23:35;22.50;99.90
25688;DHT22;17407;51.120;3.702;2023-08-01T10:26:04;22.70;99.90
25688;DHT22;17407;51.120;3.702;2023-08-01T10:28:31;22.80;99.90
25688;DHT22;17407;51.120;3.702;2023-08-01T10:31:16;22.90;99.90
25688;DHT22;17407;51.120;3.702;2023-08-01T10:33:43;23.00;99.90
25688;DHT22;17407;51.120;3.702;2023-08-01T10:36:20;23.20;99.90
25688;DHT22;17407;51.120;3.702;2023-08-01T10:38:57;23.40;99.90
25688;DHT22;17407;51.120;3.702;2023-08-01T10:43:51;23.70;99.90
25688;DHT22;17407;51.120;3.702;2023-08-01T10:46:17;23.70;99.90
25688;DHT22;17407;51.120;3.702;2023-08-01T10:48:52;23.50;99.90
25688;DHT22;17407;51.120;3.702;2023-08-01T10:51:18;23.40;99.90
25688;DHT22;17407;51.120;3.702;2023-08-01T10:53:44;23.20;99.90
25688;DHT22;17407;51.120;3.702;2023-08-01T10:56:20;22.80;99.90
25688;DHT22;17407;51.120;3.702;2023-08-01T10:58:47;22.60;99.90
25688;DHT22;17407;51.120;3.702;2023-08-01T11:01:13;22.40;99.90
25688;DHT22;17407;51.120;3.702;2023-08-01T11:03:39;22.30;99.90
25688;DHT22;17407;51.120;3.702;2023-08-01T11:06:05;22.20;99.90
25688;DHT22;17407;51.120;3.702;2023-08-01T11:08:35;22.50;99.90
25688;DHT22;17407;51.120;3.702;2023-08-01T11:11:01;23.50;99.90
25688;DHT22;17407;51.120;3.702;2023-08-01T11:13:27;24.50;99.90
25688;DHT22;17407;51.120;3.702;2023-08-01T11:15:52;25.20;99.90
25688;DHT22;17407;51.120;3.702;2023-08-01T11:18:21;25.60;99.90
25688;DHT22;17407;51.120;3.702;2023-08-01T11:20:47;25.50;99.90
25688;DHT22;17407;51.120;3.702;2023-08-01T11:23:12;25.30;99.90
25688;DHT22;17407;51.120;3.702;2023-08-01T11:25:41;24.80;99.90
25688;DHT22;17407;51.120;3.702;2023-08-01T11:28:11;24.50;99.90
25688;DHT22;17407;51.120;3.702;2023-08-01T11:30:38;24.30;99.90
25688;DHT22;17407;51.120;3.702;2023-08-01T11:33:20;23.90;99.90
25688;DHT22;17407;51.120;3.702;2023-08-01T11:35:53;23.60;99.90
25688;DHT22;17407;51.120;3.702;2023-08-01T11:38:23;23.40;99.90
25688;DHT22;17407;51.120;3.702;2023-08-01T11:40:50;23.20;99.90
25688;DHT22;17407;51.120;3.702;2023-08-01T11:43:16;23.00;99.90
25688;DHT22;17407;51.120;3.702;2023-08-01T11:45:55;22.80;99.90
25688;DHT22;17407;51.120;3.702;2023-08-01T11:48:22;22.90;99.90
25688;DHT22;17407;51.120;3.702;2023-08-01T11:50:49;23.10;99.90
25688;DHT22;17407;51.120;3.702;2023-08-01T11:53:20;22.90;99.90
25688;DHT22;17407;51.120;3.702;2023-08-01T11:55:47;22.80;99.90
25688;DHT22;17407;51.120;3.702;2023-08-01T11:58:13;22.70;99.90
25688;DHT22;17407;51.120;3.702;2023-08-01T12:00:40;22.50;99.90
25688;DHT22;17407;51.120;3.702;2023-08-01T12:03:08;22.20;99.90
25688;DHT22;17407;51.120;3.702;2023-08-01T12:05:39;21.80;99.90
25688;DHT22;17407;51.120;3.702;2023-08-01T12:08:13;21.90;99.90
25688;DHT22;17407;51.120;3.702;2023-08-01T12:10:44;22.10;99.90
25688;DHT22;17407;51.120;3.702;2023-08-01T12:13:24;22.20;99.90
25688;DHT22;17407;51.120;3.702;2023-08-01T12:15:52;22.10;99.90
25688;DHT22;17407;51.120;3.702;2023-08-01T12:18:26;22.30;99.90
25688;DHT22;17407;51.120;3.702;2023-08-01T12:20:52;22.40;99.90
25688;DHT22;17407;51.120;3.702;2023-08-01T12:23:18;22.50;99.90
25688;DHT22;17407;51.120;3.702;2023-08-01T12:25:44;22.40;99.90
25688;DHT22;17407;51.120;3.702;2023-08-01T12:28:10;22.50;99.90
25688;DHT22;17407;51.120;3.702;2023-08-01T12:30:35;22.80;99.90
25688;DHT22;17407;51.120;3.702;2023-08-01T12:33:04;23.30;99.90
25688;DHT22;17407;51.120;3.702;2023-08-01T12:35:29;23.50;99.90
25688;DHT22;17407;51.120;3.702;2023-08-01T12:37:55;23.50;99.90
25688;DHT22;17407;51.120;3.702;2023-08-01T12:40:22;23.60;99.90
25688;DHT22;17407;51.120;3.702;2023-08-01T12:42:47;23.60;99.90
25688;DHT22;17407;51.120;3.702;2023-08-01T12:45:13;23.60;99.90
25688;DHT22;17407;51.120;3.702;2023-08-01T12:47:39;23.60;99.90
25688;DHT22;17407;51.120;3.702;2023-08-01T12:50:05;23.30;99.90
25688;DHT22;17407;51.120;3.702;2023-08-01T12:52:31;22.90;99.90
25688;DHT22;17407;51.120;3.702;2023-08-01T12:54:56;22.80;99.90
25688;DHT22;17407;51.120;3.702;2023-08-01T12:57:22;22.80;99.90
25688;DHT22;17407;51.120;3.702;2023-08-01T12:59:48;22.70;99.90
25688;DHT22;17407;51.120;3.702;2023-08-01T13:02:14;22.80;99.90
25688;DHT22;17407;51.120;3.702;2023-08-01T13:04:40;22.90;99.90
25688;DHT22;17407;51.120;3.702;2023-08-01T13:07:06;22.50;99.90
25688;DHT22;17407;51.120;3.702;2023-08-01T13:09:31;22.30;99.90
25688;DHT22;17407;51.120;3.702;2023-08-01T13:11:57;22.00;99.90
25688;DHT22;17407;51.120;3.702;2023-08-01T13:14:25;22.00;99.90
25688;DHT22;17407;51.120;3.702;2023-08-01T13:16:51;22.00;99.90
25688;DHT22;17407;51.120;3.702;2023-08-01T13:19:16;21.70;99.90
25688;DHT22;17407;51.120;3.702;2023-08-01T13:21:42;21.70;99.90
25688;DHT22;17407;51.120;3.702;2023-08-01T13:24:07;21.50;99.90
25688;DHT22;17407;51.120;3.702;2023-08-01T13:26:33;21.20;99.90
25688;DHT22;17407;51.120;3.702;2023-08-01T13:29:00;21.10;99.90
25688;DHT22;17407;51.120;3.702;2023-08-01T13:31:26;20.90;99.90
25688;DHT22;17407;51.120;3.702;2023-08-01T13:33:52;20.80;99.90
25688;DHT22;17407;51.120;3.702;2023-08-01T13:36:18;20.70;99.90
25688;DHT22;17407;51.120;3.702;2023-08-01T13:38:44;20.70;99.90
25688;DHT22;17407;51.120;3.702;2023-08-01T13:41:10;20.70;99.90
25688;DHT22;17407;51.120;3.702;2023-08-01T13:43:36;20.70;99.90
25688;DHT22;17407;51.120;3.702;2023-08-01T13:46:11;20.50;99.90
25688;DHT22;17407;51.120;3.702;2023-08-01T13:48:37;20.50;99.90
25688;DHT22;17407;51.120;3.702;2023-08-01T13:51:02;20.40;99.90
25688;DHT22;17407;51.120;3.702;2023-08-01T13:53:28;20.30;99.90
25688;DHT22;17407;51.120;3.702;2023-08-01T13:55:54;20.30;99.90
25688;DHT22;17407;51.120;3.702;2023-08-01T13:58:20;20.00;99.90
25688;DHT22;17407;51.120;3.702;2023-08-01T14:00:46;20.00;99.90
25688;DHT22;17407;51.120;3.702;2023-08-01T14:03:12;19.80;99.90
25688;DHT22;17407;51.120;3.702;2023-08-01T14:05:38;19.70;99.90
25688;DHT22;17407;51.120;3.702;2023-08-01T14:08:03;19.80;99.90
25688;DHT22;17407;51.120;3.702;2023-08-01T14:10:30;19.90;99.90
25688;DHT22;17407;51.120;3.702;2023-08-01T14:12:56;20.10;99.90
25688;DHT22;17407;51.120;3.702;2023-08-01T14:15:21;20.20;99.90
25688;DHT22;17407;51.120;3.702;2023-08-01T14:17:47;20.20;99.90
25688;DHT22;17407;51.120;3.702;2023-08-01T14:20:13;20.30;99.90
25688;DHT22;17407;51.120;3.702;2023-08-01T14:22:40;20.40;99.90
25688;DHT22;17407;51.120;3.702;2023-08-01T14:25:06;20.60;99.90
25688;DHT22;17407;51.120;3.702;2023-08-01T14:27:32;20.60;99.90
25688;DHT22;17407;51.120;3.702;2023-08-01T14:29:58;20.60;99.90
25688;DHT22;17407;51.120;3.702;2023-08-01T14:32:23;20.60;99.90
25688;DHT22;17407;51.120;3.702;2023-08-01T14:34:49;20.60;99.90
25688;DHT22;17407;51.120;3.702;2023-08-01T14:37:15;20.60;99.90
25688;DHT22;17407;51.120;3.702;2023-08-01T14:39:40;20.70;99.90
25688;DHT22;17407;51.120;3.702;2023-08-01T14:42:06;20.80;99.90
25688;DHT22;17407;51.120;3.702;2023-08-01T14:44:32;21.00;99.90
25688;DHT22;17407;51.120;3.702;2023-08-01T14:46:57;20.90;99.90
25688;DHT22;17407;51.120;3.702;2023-08-01T14:49:23;21.00;99.90
25688;DHT22;17407;51.120;3.702;2023-08-01T14:51:52;20.80;99.90
25688;DHT22;17407;51.120;3.702;2023-08-01T14:54:18;20.80;99.90
25688;DHT22;17407;51.120;3.702;2023-08-01T14:56:44;21.00;99.90
25688;DHT22;17407;51.120;3.702;2023-08-01T14:59:10;20.90;99.90
25688;DHT22;17407;51.120;3.702;2023-08-01T15:01:35;20.80;99.90
25688;DHT22;17407;51.120;3.702;2023-08-01T15:04:01;20.80;99.90
25688;DHT22;17407;51.120;3.702;2023-08-01T15:06:27;20.90;99.90
25688;DHT22;17407;51.120;3.702;2023-08-01T15:08:52;20.80;99.90
25688;DHT22;17407;51.120;3.702;2023-08-01T15:11:18;20.80;99.90
25688;DHT22;17407;51.120;3.702;2023-08-01T15:13:43;20.90;99.90
25688;DHT22;17407;51.120;3.702;2023-08-01T15:16:10;21.00;99.90
25688;DHT22;17407;51.120;3.702;2023-08-01T15:18:36;21.10;99.90
25688;DHT22;17407;51.120;3.702;2023-08-01T15:21:02;20.90;99.90
25688;DHT22;17407;51.120;3.702;2023-08-01T15:23:28;20.80;99.90
25688;DHT22;17407;51.120;3.702;2023-08-01T15:25:55;20.70;99.90
25688;DHT22;17407;51.120;3.702;2023-08-01T15:28:22;20.50;99.90